sensor_id;sensor_type;location;lat;lon;timestamp;temperature;humidity
22035;DHT22;11181;51.002;4.356;2023-02-15T00:01:30;7.90;99.90
22035;DHT22;11181;51.002;4.356;2023-02-15T00:03:57;7.90;99.90
22035;DHT22;11181;51.002;4.356;2023-02-15T00:06:26;8.00;99.90
22035;DHT22;11181;51.002;4.356;2023-02-15T00:08:55;8.00;99.90
22035;DHT22;11181;51.002;4.356;2023-02-15T00:11:22;8.00;99.90
22035;DHT22;11181;51.002;4.356;2023-02-15T00:14:03;7.90;99.90
22035;DHT22;11181;51.002;4.356;2023-02-15T00:16:30;7.90;99.90
22035;DHT22;11181;51.002;4.356;2023-02-15T00:18:57;7.80;99.90
22035;DHT22;11181;51.002;4.356;2023-02-15T00:21:29;7.80;99.90
22035;DHT22;11181;51.002;4.356;2023-02-15T00:23:57;7.70;99.90
22035;DHT22;11181;51.002;4.356;2023-02-15T00:26:24;7.70;99.90
22035;DHT22;11181;51.002;4.356;2023-02-15T00:28:51;7.70;99.90
22035;DHT22;11181;51.002;4.356;2023-02-15T00:31:19;7.80;99.90
22035;DHT22;11181;51.002;4.356;2023-02-15T00:33:46;7.80;99.90
22035;DHT22;11181;51.002;4.356;2023-02-15T00:36:13;7.70;99.90
22035;DHT22;11181;51.002;4.356;2023-02-15T00:38:42;7.70;99.90
22035;DHT22;11181;51.002;4.356;2023-02-15T00:41:09;7.60;99.90
22035;DHT22;11181;51.002;4.356;2023-02-15T00:43:36;7.60;99.90
22035;DHT22;11181;51.002;4.356;2023-02-15T00:46:05;7.70;99.90
22035;DHT22;11181;51.002;4.356;2023-02-15T00:48:32;7.70;99.90
22035;DHT22;11181;51.002;4.356;2023-02-15T00:50:59;7.60;99.90
22035;DHT22;11181;51.002;4.356;2023-02-15T00:53:27;7.70;99.90
22035;DHT22;11181;51.002;4.356;2023-02-15T00:55:56;7.70;99.90
22035;DHT22;11181;51.002;4.356;2023-02-15T00:58:23;7.70;99.90
22035;DHT22;11181;51.002;4.356;2023-02-15T01:00:51;7.70;99.90
22035;DHT22;11181;51.002;4.356;2023-02-15T01:03:19;7.60;99.90
22035;DHT22;11181;51.002;4.356;2023-02-15T01:05:47;7.60;99.90
22035;DHT22;11181;51.002;4.356;2023-02-15T01:08:15;7.60;99.90
22035;DHT22;11181;51.002;4.356;2023-02-15T01:10:42;7.70;99.90
22035;DHT22;11181;51.002;4.356;2023-02-15T01:13:13;7.60;99.90
22035;DHT22;11181;51.002;4.356;2023-02-15T01:15:40;7.60;99.90
22035;DHT22;11181;51.002;4.356;2023-02-15T01:18:08;7.60;99.90
22035;DHT22;11181;51.002;4.356;2023-02-15T01:20:36;7.60;99.90
22035;DHT22;11181;51.002;4.356;2023-02-15T01:23:07;7.50;99.90
22035;DHT22;11181;51.002;4.356;2023-02-15T01:25:35;7.40;99.90
22035;DHT22;11181;51.002;4.356;2023-02-15T01:28:03;7.30;99.90
22035;DHT22;11181;51.002;4.356;2023-02-15T01:30:32;7.30;99.90
22035;DHT22;11181;51.002;4.356;2023-02-15T01:32:59;7.20;99.90
22035;DHT22;11181;51.002;4.356;2023-02-15T01:35:27;7.10;99.90
22035;DHT22;11181;51.002;4.356;2023-02-15T01:37:55;7.20;99.90
22035;DHT22;11181;51.002;4.356;2023-02-15T01:40:22;7.20;99.90
22035;DHT22;11181;51.002;4.356;2023-02-15T01:42:50;7.20;99.90
22035;DHT22;11181;51.002;4.356;2023-02-15T01:45:23;7.20;99.90
22035;DHT22;11181;51.002;4.356;2023-02-15T01:47:56;7.20;99.90
22035;DHT22;11181;51.002;4.356;2023-02-15T01:50:28;7.10;99.90
22035;DHT22;11181;51.002;4.356;2023-02-15T01:53:01;7.10;99.90
22035;DHT22;11181;51.002;4.356;2023-02-15T01:55:32;7.00;99.90
22035;DHT22;11181;51.002;4.356;2023-02-15T01:57:59;6.90;99.90
22035;DHT22;11181;51.002;4.356;2023-02-15T02:00:27;6.90;99.90
22035;DHT22;11181;51.002;4.356;2023-02-15T02:02:57;6.90;99.90
22035;DHT22;11181;51.002;4.356;2023-02-15T02:05:24;6.90;99.90
22035;DHT22;11181;51.002;4.356;2023-02-15T02:07:52;6.90;99.90
22035;DHT22;11181;51.002;4.356;2023-02-15T02:10:22;6.90;99.90
22035;DHT22;11181;51.002;4.356;2023-02-15T02:12:52;6.90;99.90
22035;DHT22;11181;51.002;4.356;2023-02-15T02:15:26;6.80;99.90
22035;DHT22;11181;51.002;4.356;2023-02-15T02:18:07;6.90;99.90
22035;DHT22;11181;51.002;4.356;2023-02-15T02:21:02;6.90;99.90
22035;DHT22;11181;51.002;4.356;2023-02-15T02:23:49;6.90;99.90
22035;DHT22;11181;51.002;4.356;2023-02-15T02:29:37;6.70;99.90
22035;DHT22;11181;51.002;4.356;2023-02-15T02:35:23;6.50;99.90
22035;DHT22;11181;51.002;4.356;2023-02-15T02:38:03;6.50;99.90
22035;DHT22;11181;51.002;4.356;2023-02-15T02:40:42;6.50;99.90
22035;DHT22;11181;51.002;4.356;2023-02-15T02:43:17;6.50;99.90
22035;DHT22;11181;51.002;4.356;2023-02-15T02:45:51;6.50;99.90
22035;DHT22;11181;51.002;4.356;2023-02-15T02:48:21;6.60;99.90
22035;DHT22;11181;51.002;4.356;2023-02-15T02:50:50;6.60;99.90
22035;DHT22;11181;51.002;4.356;2023-02-15T02:53:17;6.70;99.90
22035;DHT22;11181;51.002;4.356;2023-02-15T02:55:47;6.70;99.90
22035;DHT22;11181;51.002;4.356;2023-02-15T02:58:19;6.60;99.90
22035;DHT22;11181;51.002;4.356;2023-02-15T03:00:50;6.60;99.90
22035;DHT22;11181;51.002;4.356;2023-02-15T03:03:22;6.60;99.90
22035;DHT22;11181;51.002;4.356;2023-02-15T03:05:56;6.50;99.90
22035;DHT22;11181;51.002;4.356;2023-02-15T03:08:26;6.40;99.90
22035;DHT22;11181;51.002;4.356;2023-02-15T03:10:58;6.30;99.90
22035;DHT22;11181;51.002;4.356;2023-02-15T03:13:26;6.30;99.90
22035;DHT22;11181;51.002;4.356;2023-02-15T03:15:55;6.30;99.90
22035;DHT22;11181;51.002;4.356;2023-02-15T03:18:43;6.20;99.90
22035;DHT22;11181;51.002;4.356;2023-02-15T03:21:20;6.10;99.90
22035;DHT22;11181;51.002;4.356;2023-02-15T03:23:51;6.20;99.90
22035;DHT22;11181;51.002;4.356;2023-02-15T03:26:20;6.20;99.90
22035;DHT22;11181;51.002;4.356;2023-02-15T03:28:51;6.20;99.90
22035;DHT22;11181;51.002;4.356;2023-02-15T03:31:21;6.20;99.90
22035;DHT22;11181;51.002;4.356;2023-02-15T03:33:55;6.20;99.90
22035;DHT22;11181;51.002;4.356;2023-02-15T03:36:30;6.30;99.90
22035;DHT22;11181;51.002;4.356;2023-02-15T03:39:03;6.20;99.90
22035;DHT22;11181;51.002;4.356;2023-02-15T03:41:35;6.20;99.90
22035;DHT22;11181;51.002;4.356;2023-02-15T03:44:06;6.10;99.90
22035;DHT22;11181;51.002;4.356;2023-02-15T03:46:39;6.10;99.90
22035;DHT22;11181;51.002;4.356;2023-02-15T03:49:10;6.10;99.90
22035;DHT22;11181;51.002;4.356;2023-02-15T03:51:42;6.10;99.90
22035;DHT22;11181;51.002;4.356;2023-02-15T03:54:11;6.20;99.90
22035;DHT22;11181;51.002;4.356;2023-02-15T03:56:41;6.20;99.90
22035;DHT22;11181;51.002;4.356;2023-02-15T03:59:28;6.20;99.90
22035;DHT22;11181;51.002;4.356;2023-02-15T04:02:17;6.20;99.90
22035;DHT22;11181;51.002;4.356;2023-02-15T04:04:47;6.20;99.90
22035;DHT22;11181;51.002;4.356;2023-02-15T04:07:16;6.20;99.90
22035;DHT22;11181;51.002;4.356;2023-02-15T04:09:43;6.20;99.90
22035;DHT22;11181;51.002;4.356;2023-02-15T04:12:27;6.10;99.90
22035;DHT22;11181;51.002;4.356;2023-02-15T04:14:54;6.10;99.90
22035;DHT22;11181;51.002;4.356;2023-02-15T04:17:38;6.10;99.90
22035;DHT22;11181;51.002;4.356;2023-02-15T04:20:07;6.00;99.90
22035;DHT22;11181;51.002;4.356;2023-02-15T04:22:53;6.00;99.90
22035;DHT22;11181;51.002;4.356;2023-02-15T04:25:37;6.00;99.90
22035;DHT22;11181;51.002;4.356;2023-02-15T04:28:04;5.90;99.90
22035;DHT22;11181;51.002;4.356;2023-02-15T04:30:33;5.90;99.90
22035;DHT22;11181;51.002;4.356;2023-02-15T04:32:59;5.80;99.90
22035;DHT22;11181;51.002;4.356;2023-02-15T04:35:26;5.80;99.90
22035;DHT22;11181;51.002;4.356;2023-02-15T04:37:55;5.80;99.90
22035;DHT22;11181;51.002;4.356;2023-02-15T04:40:22;5.90;99.90
22035;DHT22;11181;51.002;4.356;2023-02-15T04:42:49;5.90;99.90
22035;DHT22;11181;51.002;4.356;2023-02-15T04:45:16;5.90;99.90
22035;DHT22;11181;51.002;4.356;2023-02-15T04:47:43;5.90;99.90
22035;DHT22;11181;51.002;4.356;2023-02-15T04:50:11;5.90;99.90
22035;DHT22;11181;51.002;4.356;2023-02-15T04:52:38;5.90;99.90
22035;DHT22;11181;51.002;4.356;2023-02-15T04:55:07;5.90;99.90
22035;DHT22;11181;51.002;4.356;2023-02-15T04:57:34;5.90;99.90
22035;DHT22;11181;51.002;4.356;2023-02-15T05:00:01;5.90;99.90
22035;DHT22;11181;51.002;4.356;2023-02-15T05:02:28;5.80;99.90
22035;DHT22;11181;51.002;4.356;2023-02-15T05:04:55;5.80;99.90
22035;DHT22;11181;51.002;4.356;2023-02-15T05:07:22;5.80;99.90
22035;DHT22;11181;51.002;4.356;2023-02-15T05:09:49;5.80;99.90
22035;DHT22;11181;51.002;4.356;2023-02-15T05:12:17;5.70;99.90
22035;DHT22;11181;51.002;4.356;2023-02-15T05:14:44;5.70;99.90
22035;DHT22;11181;51.002;4.356;2023-02-15T05:17:11;5.60;99.90
22035;DHT22;11181;51.002;4.356;2023-02-15T05:19:38;5.60;99.90
22035;DHT22;11181;51.002;4.356;2023-02-15T05:22:05;5.50;99.90
22035;DHT22;11181;51.002;4.356;2023-02-15T05:24:32;5.60;99.90
22035;DHT22;11181;51.002;4.356;2023-02-15T05:27:18;5.50;99.90
22035;DHT22;11181;51.002;4.356;2023-02-15T05:30:02;5.50;99.90
22035;DHT22;11181;51.002;4.356;2023-02-15T05:32:29;5.40;99.90
22035;DHT22;11181;51.002;4.356;2023-02-15T05:34:56;5.40;99.90
22035;DHT22;11181;51.002;4.356;2023-02-15T05:37:23;5.40;99.90
22035;DHT22;11181;51.002;4.356;2023-02-15T05:39:50;5.40;99.90
22035;DHT22;11181;51.002;4.356;2023-02-15T05:42:18;5.50;99.90
22035;DHT22;11181;51.002;4.356;2023-02-15T05:44:45;5.50;99.90
22035;DHT22;11181;51.002;4.356;2023-02-15T05:47:12;5.60;99.90
22035;DHT22;11181;51.002;4.356;2023-02-15T05:49:39;5.50;99.90
22035;DHT22;11181;51.002;4.356;2023-02-15T05:52:06;5.60;99.90
22035;DHT22;11181;51.002;4.356;2023-02-15T05:54:33;5.50;99.90
22035;DHT22;11181;51.002;4.356;2023-02-15T05:57:00;5.50;99.90
22035;DHT22;11181;51.002;4.356;2023-02-15T05:59:28;5.50;99.90
22035;DHT22;11181;51.002;4.356;2023-02-15T06:01:55;5.50;99.90
22035;DHT22;11181;51.002;4.356;2023-02-15T06:04:24;5.50;99.90
22035;DHT22;11181;51.002;4.356;2023-02-15T06:06:51;5.50;99.90
22035;DHT22;11181;51.002;4.356;2023-02-15T06:09:18;5.50;99.90
22035;DHT22;11181;51.002;4.356;2023-02-15T06:11:45;5.40;99.90
22035;DHT22;11181;51.002;4.356;2023-02-15T06:14:12;5.40;99.90
22035;DHT22;11181;51.002;4.356;2023-02-15T06:16:40;5.40;99.90
22035;DHT22;11181;51.002;4.356;2023-02-15T06:19:07;5.40;99.90
22035;DHT22;11181;51.002;4.356;2023-02-15T06:21:34;5.40;99.90
22035;DHT22;11181;51.002;4.356;2023-02-15T06:24:01;5.40;99.90
22035;DHT22;11181;51.002;4.356;2023-02-15T06:26:28;5.40;99.90
22035;DHT22;11181;51.002;4.356;2023-02-15T06:28:55;5.50;99.90
22035;DHT22;11181;51.002;4.356;2023-02-15T06:31:22;5.50;99.90
22035;DHT22;11181;51.002;4.356;2023-02-15T06:33:51;5.50;99.90
22035;DHT22;11181;51.002;4.356;2023-02-15T06:36:17;5.50;99.90
22035;DHT22;11181;51.002;4.356;2023-02-15T06:38:44;5.50;99.90
22035;DHT22;11181;51.002;4.356;2023-02-15T06:41:11;5.60;99.90
22035;DHT22;11181;51.002;4.356;2023-02-15T06:43:38;5.50;99.90
22035;DHT22;11181;51.002;4.356;2023-02-15T06:46:05;5.60;99.90
22035;DHT22;11181;51.002;4.356;2023-02-15T06:48:32;5.60;99.90
22035;DHT22;11181;51.002;4.356;2023-02-15T06:51:00;5.60;99.90
22035;DHT22;11181;51.002;4.356;2023-02-15T06:53:27;5.60;99.90
22035;DHT22;11181;51.002;4.356;2023-02-15T06:56:00;5.60;99.90
22035;DHT22;11181;51.002;4.356;2023-02-15T06:58:28;5.60;99.90
22035;DHT22;11181;51.002;4.356;2023-02-15T07:00:55;5.60;99.90
22035;DHT22;11181;51.002;4.356;2023-02-15T07:03:22;5.60;99.90
22035;DHT22;11181;51.002;4.356;2023-02-15T07:05:48;5.60;99.90
22035;DHT22;11181;51.002;4.356;2023-02-15T07:08:17;5.60;99.90
22035;DHT22;11181;51.002;4.356;2023-02-15T07:10:45;5.60;99.90
22035;DHT22;11181;51.002;4.356;2023-02-15T07:13:13;5.60;99.90
22035;DHT22;11181;51.002;4.356;2023-02-15T07:15:39;5.60;99.90
22035;DHT22;11181;51.002;4.356;2023-02-15T07:18:06;5.70;99.90
22035;DHT22;11181;51.002;4.356;2023-02-15T07:20:34;5.80;99.90
22035;DHT22;11181;51.002;4.356;2023-02-15T07:23:02;5.80;99.90
22035;DHT22;11181;51.002;4.356;2023-02-15T07:25:30;6.00;99.90
22035;DHT22;11181;51.002;4.356;2023-02-15T07:28:00;6.20;99.90
22035;DHT22;11181;51.002;4.356;2023-02-15T07:30:29;6.40;99.90
22035;DHT22;11181;51.002;4.356;2023-02-15T07:32:59;6.60;99.90
22035;DHT22;11181;51.002;4.356;2023-02-15T07:35:50;6.80;99.90
22035;DHT22;11181;51.002;4.356;2023-02-15T07:38:33;7.00;99.90
22035;DHT22;11181;51.002;4.356;2023-02-15T07:41:34;7.20;99.90
22035;DHT22;11181;51.002;4.356;2023-02-15T07:44:21;7.20;99.90
22035;DHT22;11181;51.002;4.356;2023-02-15T07:47:11;7.30;99.90
22035;DHT22;11181;51.002;4.356;2023-02-15T07:49:54;7.20;99.90
22035;DHT22;11181;51.002;4.356;2023-02-15T07:52:21;7.20;99.90
22035;DHT22;11181;51.002;4.356;2023-02-15T07:54:48;7.20;99.90
22035;DHT22;11181;51.002;4.356;2023-02-15T07:57:16;7.30;99.90
22035;DHT22;11181;51.002;4.356;2023-02-15T07:59:43;7.30;99.90
22035;DHT22;11181;51.002;4.356;2023-02-15T08:02:10;7.40;99.90
22035;DHT22;11181;51.002;4.356;2023-02-15T08:04:37;7.50;99.90
22035;DHT22;11181;51.002;4.356;2023-02-15T08:07:04;7.70;99.90
22035;DHT22;11181;51.002;4.356;2023-02-15T08:09:32;7.90;99.90
22035;DHT22;11181;51.002;4.356;2023-02-15T08:11:59;8.00;99.90
22035;DHT22;11181;51.002;4.356;2023-02-15T08:14:27;8.20;99.90
22035;DHT22;11181;51.002;4.356;2023-02-15T08:16:55;8.30;99.90
22035;DHT22;11181;51.002;4.356;2023-02-15T08:19:25;8.40;99.90
22035;DHT22;11181;51.002;4.356;2023-02-15T08:21:54;8.60;99.90
22035;DHT22;11181;51.002;4.356;2023-02-15T08:24:23;8.70;99.90
22035;DHT22;11181;51.002;4.356;2023-02-15T08:26:51;8.70;99.90
22035;DHT22;11181;51.002;4.356;2023-02-15T08:29:20;8.70;99.90
22035;DHT22;11181;51.002;4.356;2023-02-15T08:31:49;8.80;99.90
22035;DHT22;11181;51.002;4.356;2023-02-15T08:34:18;8.90;99.90
22035;DHT22;11181;51.002;4.356;2023-02-15T08:36:45;9.10;99.90
22035;DHT22;11181;51.002;4.356;2023-02-15T08:39:13;8.60;99.90
22035;DHT22;11181;51.002;4.356;2023-02-15T08:41:43;8.50;99.90
22035;DHT22;11181;51.002;4.356;2023-02-15T08:44:10;8.80;99.90
22035;DHT22;11181;51.002;4.356;2023-02-15T08:46:40;9.10;99.90
22035;DHT22;11181;51.002;4.356;2023-02-15T08:49:09;9.30;99.90
22035;DHT22;11181;51.002;4.356;2023-02-15T08:51:39;9.60;99.90
22035;DHT22;11181;51.002;4.356;2023-02-15T08:54:07;9.80;99.90
22035;DHT22;11181;51.002;4.356;2023-02-15T08:56:37;10.00;99.90
22035;DHT22;11181;51.002;4.356;2023-02-15T08:59:07;10.30;99.90
22035;DHT22;11181;51.002;4.356;2023-02-15T09:01:35;10.60;99.90
22035;DHT22;11181;51.002;4.356;2023-02-15T09:04:03;10.70;99.90
22035;DHT22;11181;51.002;4.356;2023-02-15T09:06:32;10.90;99.90
22035;DHT22;11181;51.002;4.356;2023-02-15T09:08:59;11.10;99.90
22035;DHT22;11181;51.002;4.356;2023-02-15T09:11:28;11.20;99.90
22035;DHT22;11181;51.002;4.356;2023-02-15T09:13:56;11.30;99.90
22035;DHT22;11181;51.002;4.356;2023-02-15T09:16:26;11.50;99.90
22035;DHT22;11181;51.002;4.356;2023-02-15T09:18:54;11.60;99.90
22035;DHT22;11181;51.002;4.356;2023-02-15T09:21:24;11.70;99.90
22035;DHT22;11181;51.002;4.356;2023-02-15T09:23:55;11.80;99.90
22035;DHT22;11181;51.002;4.356;2023-02-15T09:26:24;11.90;99.90
22035;DHT22;11181;51.002;4.356;2023-02-15T09:28:52;12.20;99.90
22035;DHT22;11181;51.002;4.356;2023-02-15T09:31:22;12.30;99.90
22035;DHT22;11181;51.002;4.356;2023-02-15T09:33:50;12.50;99.90
22035;DHT22;11181;51.002;4.356;2023-02-15T09:36:19;12.60;99.90
22035;DHT22;11181;51.002;4.356;2023-02-15T09:38:48;12.80;99.90
22035;DHT22;11181;51.002;4.356;2023-02-15T09:44:28;13.20;99.90
22035;DHT22;11181;51.002;4.356;2023-02-15T09:47:12;13.30;99.90
22035;DHT22;11181;51.002;4.356;2023-02-15T09:49:50;13.60;99.90
22035;DHT22;11181;51.002;4.356;2023-02-15T09:52:33;13.70;99.90
22035;DHT22;11181;51.002;4.356;2023-02-15T09:55:14;13.70;99.90
22035;DHT22;11181;51.002;4.356;2023-02-15T09:57:52;13.80;99.90
22035;DHT22;11181;51.002;4.356;2023-02-15T10:00:26;13.90;99.90
22035;DHT22;11181;51.002;4.356;2023-02-15T10:03:17;14.00;99.90
22035;DHT22;11181;51.002;4.356;2023-02-15T10:05:58;14.20;99.90
22035;DHT22;11181;51.002;4.356;2023-02-15T10:08:53;14.30;99.90
22035;DHT22;11181;51.002;4.356;2023-02-15T10:11:29;14.40;99.90
22035;DHT22;11181;51.002;4.356;2023-02-15T10:14:21;14.60;99.90
22035;DHT22;11181;51.002;4.356;2023-02-15T10:16:59;14.70;99.90
22035;DHT22;11181;51.002;4.356;2023-02-15T10:19:33;14.80;99.90
22035;DHT22;11181;51.002;4.356;2023-02-15T10:22:13;14.80;99.90
22035;DHT22;11181;51.002;4.356;2023-02-15T10:25:00;14.70;99.90
22035;DHT22;11181;51.002;4.356;2023-02-15T10:27:37;14.60;99.90
22035;DHT22;11181;51.002;4.356;2023-02-15T10:30:11;14.50;99.90
22035;DHT22;11181;51.002;4.356;2023-02-15T10:32:43;14.50;99.90
22035;DHT22;11181;51.002;4.356;2023-02-15T10:35:20;14.70;99.90
22035;DHT22;11181;51.002;4.356;2023-02-15T10:38:19;14.70;99.90
22035;DHT22;11181;51.002;4.356;2023-02-15T10:40:55;14.60;99.90
22035;DHT22;11181;51.002;4.356;2023-02-15T10:43:45;14.70;99.90
22035;DHT22;11181;51.002;4.356;2023-02-15T10:46:27;14.90;99.90
22035;DHT22;11181;51.002;4.356;2023-02-15T10:49:20;15.20;99.90
22035;DHT22;11181;51.002;4.356;2023-02-15T10:51:58;15.30;99.90
22035;DHT22;11181;51.002;4.356;2023-02-15T10:54:36;15.50;99.90
22035;DHT22;11181;51.002;4.356;2023-02-15T10:57:11;15.70;99.90
22035;DHT22;11181;51.002;4.356;2023-02-15T10:59:56;15.80;99.90
22035;DHT22;11181;51.002;4.356;2023-02-15T11:02:37;15.80;99.90
22035;DHT22;11181;51.002;4.356;2023-02-15T11:05:24;16.00;99.90
22035;DHT22;11181;51.002;4.356;2023-02-15T11:07:54;16.10;99.90
22035;DHT22;11181;51.002;4.356;2023-02-15T11:10:29;16.00;99.90
22035;DHT22;11181;51.002;4.356;2023-02-15T11:12:59;15.90;99.90
22035;DHT22;11181;51.002;4.356;2023-02-15T11:15:30;15.70;99.90
22035;DHT22;11181;51.002;4.356;2023-02-15T11:18:05;15.70;99.90
22035;DHT22;11181;51.002;4.356;2023-02-15T11:20:38;15.60;99.90
22035;DHT22;11181;51.002;4.356;2023-02-15T11:23:13;15.40;99.90
22035;DHT22;11181;51.002;4.356;2023-02-15T11:25:43;15.30;99.90
22035;DHT22;11181;51.002;4.356;2023-02-15T11:28:19;15.20;99.90
22035;DHT22;11181;51.002;4.356;2023-02-15T11:30:49;15.20;99.90
22035;DHT22;11181;51.002;4.356;2023-02-15T11:33:21;15.20;99.90
22035;DHT22;11181;51.002;4.356;2023-02-15T11:35:55;15.30;99.90
22035;DHT22;11181;51.002;4.356;2023-02-15T11:38:26;15.40;99.90
22035;DHT22;11181;51.002;4.356;2023-02-15T11:40:57;15.50;99.90
22035;DHT22;11181;51.002;4.356;2023-02-15T11:43:30;15.60;99.90
22035;DHT22;11181;51.002;4.356;2023-02-15T11:45:57;15.50;99.90
22035;DHT22;11181;51.002;4.356;2023-02-15T11:48:26;15.50;99.90
22035;DHT22;11181;51.002;4.356;2023-02-15T11:50:55;15.50;99.90
22035;DHT22;11181;51.002;4.356;2023-02-15T11:53:23;15.40;99.90
22035;DHT22;11181;51.002;4.356;2023-02-15T11:55:53;15.40;99.90
22035;DHT22;11181;51.002;4.356;2023-02-15T11:58:29;15.40;99.90
22035;DHT22;11181;51.002;4.356;2023-02-15T12:01:04;15.40;99.90
22035;DHT22;11181;51.002;4.356;2023-02-15T12:03:44;15.50;99.90
22035;DHT22;11181;51.002;4.356;2023-02-15T12:06:18;15.50;99.90
22035;DHT22;11181;51.002;4.356;2023-02-15T12:08:51;15.60;99.90
22035;DHT22;11181;51.002;4.356;2023-02-15T12:11:22;15.60;99.90
22035;DHT22;11181;51.002;4.356;2023-02-15T12:13:57;15.70;99.90
22035;DHT22;11181;51.002;4.356;2023-02-15T12:16:25;15.70;99.90
22035;DHT22;11181;51.002;4.356;2023-02-15T12:18:55;15.80;99.90
22035;DHT22;11181;51.002;4.356;2023-02-15T12:21:28;15.80;99.90
22035;DHT22;11181;51.002;4.356;2023-02-15T12:24:00;15.90;99.90
22035;DHT22;11181;51.002;4.356;2023-02-15T12:26:29;16.10;99.90
22035;DHT22;11181;51.002;4.356;2023-02-15T12:28:59;16.00;99.90
22035;DHT22;11181;51.002;4.356;2023-02-15T12:31:31;15.90;99.90
22035;DHT22;11181;51.002;4.356;2023-02-15T12:34:03;15.70;99.90
22035;DHT22;11181;51.002;4.356;2023-02-15T12:36:41;15.80;99.90
22035;DHT22;11181;51.002;4.356;2023-02-15T12:39:20;15.90;99.90
22035;DHT22;11181;51.002;4.356;2023-02-15T12:41:59;16.00;99.90
22035;DHT22;11181;51.002;4.356;2023-02-15T12:44:28;16.30;99.90
22035;DHT22;11181;51.002;4.356;2023-02-15T12:47:02;16.40;99.90
22035;DHT22;11181;51.002;4.356;2023-02-15T12:49:32;16.60;99.90
22035;DHT22;11181;51.002;4.356;2023-02-15T12:52:01;16.60;99.90
22035;DHT22;11181;51.002;4.356;2023-02-15T12:54:37;16.70;99.90
22035;DHT22;11181;51.002;4.356;2023-02-15T12:57:21;16.90;99.90
22035;DHT22;11181;51.002;4.356;2023-02-15T12:59:54;17.10;99.90
22035;DHT22;11181;51.002;4.356;2023-02-15T13:02:30;17.40;99.90
22035;DHT22;11181;51.002;4.356;2023-02-15T13:05:14;17.50;99.90
22035;DHT22;11181;51.002;4.356;2023-02-15T13:07:45;17.60;99.90
22035;DHT22;11181;51.002;4.356;2023-02-15T13:10:23;17.70;99.90
22035;DHT22;11181;51.002;4.356;2023-02-15T13:12:51;17.80;99.90
22035;DHT22;11181;51.002;4.356;2023-02-15T13:15:26;17.80;99.90
22035;DHT22;11181;51.002;4.356;2023-02-15T13:17:55;17.90;99.90
22035;DHT22;11181;51.002;4.356;2023-02-15T13:20:24;17.90;99.90
22035;DHT22;11181;51.002;4.356;2023-02-15T13:22:58;17.80;99.90
22035;DHT22;11181;51.002;4.356;2023-02-15T13:25:28;17.80;99.90
22035;DHT22;11181;51.002;4.356;2023-02-15T13:28:00;17.70;99.90
22035;DHT22;11181;51.002;4.356;2023-02-15T13:30:30;17.60;99.90
22035;DHT22;11181;51.002;4.356;2023-02-15T13:33:03;17.60;99.90
22035;DHT22;11181;51.002;4.356;2023-02-15T13:35:38;17.60;99.90
22035;DHT22;11181;51.002;4.356;2023-02-15T13:38:20;17.60;99.90
22035;DHT22;11181;51.002;4.356;2023-02-15T13:40:52;17.60;99.90
22035;DHT22;11181;51.002;4.356;2023-02-15T13:43:30;17.70;99.90
22035;DHT22;11181;51.002;4.356;2023-02-15T13:46:11;17.60;99.90
22035;DHT22;11181;51.002;4.356;2023-02-15T13:48:46;17.50;99.90
22035;DHT22;11181;51.002;4.356;2023-02-15T13:51:23;17.40;99.90
22035;DHT22;11181;51.002;4.356;2023-02-15T13:57:01;17.40;99.90
22035;DHT22;11181;51.002;4.356;2023-02-15T13:59:51;17.30;99.90
22035;DHT22;11181;51.002;4.356;2023-02-15T14:05:27;17.30;99.90
22035;DHT22;11181;51.002;4.356;2023-02-15T14:08:04;17.10;99.90
22035;DHT22;11181;51.002;4.356;2023-02-15T14:10:54;17.00;99.90
22035;DHT22;11181;51.002;4.356;2023-02-15T14:16:22;17.00;99.90
22035;DHT22;11181;51.002;4.356;2023-02-15T14:19:04;17.10;99.90
22035;DHT22;11181;51.002;4.356;2023-02-15T14:21:42;17.20;99.90
22035;DHT22;11181;51.002;4.356;2023-02-15T14:24:21;17.30;99.90
22035;DHT22;11181;51.002;4.356;2023-02-15T14:26:54;17.30;99.90
22035;DHT22;11181;51.002;4.356;2023-02-15T14:29:31;17.40;99.90
22035;DHT22;11181;51.002;4.356;2023-02-15T14:32:08;17.40;99.90
22035;DHT22;11181;51.002;4.356;2023-02-15T14:34:44;17.40;99.90
22035;DHT22;11181;51.002;4.356;2023-02-15T14:37:13;17.50;99.90
22035;DHT22;11181;51.002;4.356;2023-02-15T14:39:48;17.50;99.90
22035;DHT22;11181;51.002;4.356;2023-02-15T14:42:40;17.50;99.90
22035;DHT22;11181;51.002;4.356;2023-02-15T14:45:18;17.50;99.90
22035;DHT22;11181;51.002;4.356;2023-02-15T14:47:51;17.50;99.90
22035;DHT22;11181;51.002;4.356;2023-02-15T14:50:44;17.40;99.90
22035;DHT22;11181;51.002;4.356;2023-02-15T14:53:36;17.30;99.90
22035;DHT22;11181;51.002;4.356;2023-02-15T14:56:21;17.20;99.90
22035;DHT22;11181;51.002;4.356;2023-02-15T14:59:13;17.20;99.90
22035;DHT22;11181;51.002;4.356;2023-02-15T15:01:41;17.40;99.90
22035;DHT22;11181;51.002;4.356;2023-02-15T15:04:12;17.50;99.90
22035;DHT22;11181;51.002;4.356;2023-02-15T15:06:42;17.50;99.90
22035;DHT22;11181;51.002;4.356;2023-02-15T15:09:13;17.60;99.90
22035;DHT22;11181;51.002;4.356;2023-02-15T15:11:45;17.60;99.90
22035;DHT22;11181;51.002;4.356;2023-02-15T15:14:37;17.60;99.90
22035;DHT22;11181;51.002;4.356;2023-02-15T15:17:06;17.70;99.90
22035;DHT22;11181;51.002;4.356;2023-02-15T15:20:05;17.60;99.90
22035;DHT22;11181;51.002;4.356;2023-02-15T15:22:39;17.40;99.90
22035;DHT22;11181;51.002;4.356;2023-02-15T15:25:12;17.40;99.90
22035;DHT22;11181;51.002;4.356;2023-02-15T15:28:00;17.40;99.90
22035;DHT22;11181;51.002;4.356;2023-02-15T15:30:50;17.40;99.90
22035;DHT22;11181;51.002;4.356;2023-02-15T15:39:33;17.20;99.90
22035;DHT22;11181;51.002;4.356;2023-02-15T15:42:13;17.10;99.90
22035;DHT22;11181;51.002;4.356;2023-02-15T15:45:08;17.00;99.90
22035;DHT22;11181;51.002;4.356;2023-02-15T15:47:57;16.80;99.90
22035;DHT22;11181;51.002;4.356;2023-02-15T15:50:25;16.50;99.90
22035;DHT22;11181;51.002;4.356;2023-02-15T15:52:57;16.40;99.90
22035;DHT22;11181;51.002;4.356;2023-02-15T15:55:26;16.30;99.90
22035;DHT22;11181;51.002;4.356;2023-02-15T15:57:57;16.20;99.90
22035;DHT22;11181;51.002;4.356;2023-02-15T16:00:33;16.20;99.90
22035;DHT22;11181;51.002;4.356;2023-02-15T16:03:01;16.00;99.90
22035;DHT22;11181;51.002;4.356;2023-02-15T16:05:35;16.00;99.90
22035;DHT22;11181;51.002;4.356;2023-02-15T16:08:03;15.80;99.90
22035;DHT22;11181;51.002;4.356;2023-02-15T16:10:31;15.70;99.90
22035;DHT22;11181;51.002;4.356;2023-02-15T16:13:00;15.70;99.90
22035;DHT22;11181;51.002;4.356;2023-02-15T16:15:35;15.60;99.90
22035;DHT22;11181;51.002;4.356;2023-02-15T16:18:03;15.70;99.90
22035;DHT22;11181;51.002;4.356;2023-02-15T16:20:32;15.60;99.90
22035;DHT22;11181;51.002;4.356;2023-02-15T16:23:12;15.50;99.90
22035;DHT22;11181;51.002;4.356;2023-02-15T16:25:49;15.30;99.90
22035;DHT22;11181;51.002;4.356;2023-02-15T16:28:19;15.10;99.90
22035;DHT22;11181;51.002;4.356;2023-02-15T16:30:55;15.00;99.90
22035;DHT22;11181;51.002;4.356;2023-02-15T16:33:36;15.00;99.90
22035;DHT22;11181;51.002;4.356;2023-02-15T16:36:04;15.00;99.90
22035;DHT22;11181;51.002;4.356;2023-02-15T16:39:05;15.10;99.90